createdAt,value
2018-09-08T00:01:43.960Z,7.67
2018-09-08T00:04:11.608Z,7.60
2018-09-08T00:06:39.076Z,7.50
2018-09-08T00:09:07.958Z,7.70
2018-09-08T00:11:35.469Z,8.00
2018-09-08T00:14:02.950Z,8.30
2018-09-08T00:16:36.056Z,7.60
2018-09-08T00:19:09.395Z,7.37
2018-09-08T00:21:42.407Z,7.93
2018-09-08T00:24:15.670Z,8.17
2018-09-08T00:26:42.652Z,7.30
2018-09-08T00:29:26.722Z,7.80
2018-09-08T00:31:54.639Z,7.70
2018-09-08T00:34:22.121Z,7.23
2018-09-08T00:36:49.511Z,8.23
2018-09-08T00:39:16.932Z,7.33
2018-09-08T00:41:44.345Z,7.70
2018-09-08T00:44:12.018Z,8.07
2018-09-08T00:46:39.410Z,7.20
2018-09-08T00:49:06.830Z,7.23
2018-09-08T00:51:34.213Z,7.60
2018-09-08T00:54:01.628Z,7.33
2018-09-08T00:56:29.408Z,7.17
2018-09-08T00:59:01.932Z,7.13
2018-09-08T01:01:29.679Z,6.60
2018-09-08T01:03:57.347Z,7.23
2018-09-08T01:06:24.758Z,6.90
2018-09-08T01:08:52.347Z,6.63
2018-09-08T01:11:20.519Z,6.93
2018-09-08T01:13:47.890Z,7.27
2018-09-08T01:16:15.302Z,6.50
2018-09-08T01:18:42.737Z,6.47
2018-09-08T01:21:10.147Z,6.77
2018-09-08T01:23:37.696Z,5.40
2018-09-08T01:26:05.372Z,5.80
2018-09-08T01:28:32.796Z,6.10
2018-09-08T01:31:00.235Z,6.50
2018-09-08T01:33:27.719Z,5.73
2018-09-08T01:35:55.603Z,6.50
2018-09-08T01:38:23.022Z,5.50
2018-09-08T01:40:50.523Z,6.20
2018-09-08T01:43:18.163Z,6.00
2018-09-08T01:45:45.574Z,6.20
2018-09-08T01:48:12.965Z,6.00
2018-09-08T01:50:40.755Z,5.60
2018-09-08T01:53:08.172Z,5.20
2018-09-08T01:55:35.663Z,5.60
2018-09-08T01:58:03.080Z,5.77
2018-09-08T02:00:30.495Z,4.97
2018-09-08T02:02:57.896Z,4.87
2018-09-08T02:05:25.324Z,5.97
2018-09-08T02:07:52.694Z,4.93
2018-09-08T02:10:20.111Z,5.40
2018-09-08T02:12:47.486Z,5.30
2018-09-08T02:15:15.005Z,4.60
2018-09-08T02:17:42.420Z,5.17
2018-09-08T02:20:09.918Z,5.03
2018-09-08T02:22:37.436Z,5.03
2018-09-08T02:25:04.953Z,5.43
2018-09-08T02:27:32.347Z,5.30
2018-09-08T02:29:59.763Z,5.00
2018-09-08T02:32:27.168Z,4.53
2018-09-08T02:34:54.559Z,4.10
2018-09-08T02:37:22.052Z,4.10
2018-09-08T02:39:49.782Z,4.60
2018-09-08T02:42:17.220Z,4.17
2018-09-08T02:44:44.615Z,4.50
2018-09-08T02:47:12.043Z,4.57
2018-09-08T02:49:51.080Z,4.60
2018-09-08T02:52:17.535Z,4.67
2018-09-08T02:54:43.985Z,4.10
2018-09-08T02:57:10.450Z,4.53
2018-09-08T02:59:36.877Z,4.50
2018-09-08T03:02:03.355Z,4.17
2018-09-08T03:04:29.791Z,3.83
2018-09-08T03:06:56.264Z,4.10
2018-09-08T03:09:22.756Z,3.83
2018-09-08T03:11:49.216Z,3.70
2018-09-08T03:14:15.662Z,3.50
2018-09-08T03:16:42.134Z,3.93
2018-09-08T03:19:08.673Z,3.50
2018-09-08T03:21:35.165Z,3.23
2018-09-08T03:24:01.599Z,3.30
2018-09-08T03:26:28.071Z,3.37
2018-09-08T03:28:54.605Z,2.90
2018-09-08T03:31:21.070Z,3.10
2018-09-08T03:33:47.502Z,3.10
2018-09-08T03:36:13.961Z,2.87
2018-09-08T03:38:40.534Z,3.23
2018-09-08T03:41:06.999Z,3.20
2018-09-08T03:43:33.445Z,3.30
2018-09-08T03:45:59.933Z,3.13
2018-09-08T03:48:26.395Z,3.10
2018-09-08T03:50:52.820Z,2.83
2018-09-08T03:53:19.287Z,3.10
2018-09-08T03:55:45.723Z,3.63
2018-09-08T03:58:12.170Z,3.37
2018-09-08T04:00:38.613Z,3.50
2018-09-08T04:03:06.045Z,2.80
2018-09-08T04:05:33.447Z,3.20
2018-09-08T04:08:00.875Z,3.53
2018-09-08T04:10:28.276Z,3.30
2018-09-08T04:12:55.719Z,3.23
2018-09-08T04:15:23.117Z,2.87
2018-09-08T04:17:50.519Z,3.13
2018-09-08T04:20:17.913Z,3.03
2018-09-08T04:22:45.331Z,3.03
2018-09-08T04:25:12.722Z,3.70
2018-09-08T04:27:40.131Z,2.53
2018-09-08T04:30:07.523Z,2.50
2018-09-08T04:32:34.931Z,2.90
2018-09-08T04:35:02.415Z,3.20
2018-09-08T04:37:30.105Z,3.30
2018-09-08T04:39:57.532Z,3.30
2018-09-08T04:42:24.951Z,3.07
2018-09-08T04:44:52.352Z,3.30
2018-09-08T04:47:19.756Z,3.33
2018-09-08T04:49:47.147Z,3.17
2018-09-08T04:52:14.558Z,3.27
2018-09-08T04:54:41.936Z,3.23
2018-09-08T04:57:09.355Z,3.20
2018-09-08T04:59:36.746Z,3.40
2018-09-08T05:02:04.160Z,3.50
2018-09-08T05:04:31.555Z,3.60
2018-09-08T05:06:58.980Z,2.93
2018-09-08T05:09:26.437Z,3.03
2018-09-08T05:11:53.842Z,3.50
2018-09-08T05:14:21.290Z,3.33
2018-09-08T05:16:48.722Z,3.50
2018-09-08T05:19:16.148Z,3.57
2018-09-08T05:21:43.574Z,3.40
2018-09-08T05:24:10.988Z,2.97
2018-09-08T05:26:38.371Z,2.90
2018-09-08T05:29:05.799Z,3.50
2018-09-08T05:31:33.204Z,3.80
2018-09-08T05:34:00.622Z,4.10
2018-09-08T05:36:28.041Z,3.60
2018-09-08T05:38:55.464Z,4.20
2018-09-08T05:41:22.897Z,3.00
2018-09-08T05:43:50.332Z,3.60
2018-09-08T05:46:17.713Z,3.63
2018-09-08T05:48:45.173Z,3.60
2018-09-08T05:51:12.533Z,3.57
2018-09-08T05:53:39.975Z,3.70
2018-09-08T05:56:07.524Z,3.60
2018-09-08T05:58:35.000Z,4.30
2018-09-08T06:01:02.402Z,4.00
2018-09-08T06:03:29.827Z,3.13
2018-09-08T06:05:57.232Z,4.03
2018-09-08T06:08:24.647Z,3.60
2018-09-08T06:10:52.090Z,3.63
2018-09-08T06:13:19.524Z,4.00
2018-09-08T06:15:46.919Z,3.77
2018-09-08T06:18:14.351Z,3.70
2018-09-08T06:20:41.764Z,3.50
2018-09-08T06:23:09.224Z,3.43
2018-09-08T06:25:36.644Z,3.83
2018-09-08T06:28:04.068Z,3.40
2018-09-08T06:30:31.452Z,3.43
2018-09-08T06:32:58.863Z,4.10
2018-09-08T06:35:26.375Z,3.60
2018-09-08T06:37:53.673Z,3.30
2018-09-08T06:40:21.096Z,3.40
2018-09-08T06:42:48.517Z,4.13
2018-09-08T06:45:15.948Z,3.90
2018-09-08T06:47:43.352Z,4.27
2018-09-08T06:50:10.779Z,3.70
2018-09-08T06:52:38.159Z,3.67
2018-09-08T06:55:05.638Z,3.43
2018-09-08T06:57:33.091Z,3.60
2018-09-08T07:00:00.529Z,4.73
2018-09-08T07:02:27.961Z,3.70
2018-09-08T07:04:55.381Z,3.73
2018-09-08T07:07:22.776Z,4.53
2018-09-08T07:09:50.211Z,4.20
2018-09-08T07:12:17.598Z,4.00
2018-09-08T07:14:45.012Z,4.17
2018-09-08T07:17:12.439Z,4.07
2018-09-08T07:19:39.864Z,3.50
2018-09-08T07:22:07.390Z,3.93
2018-09-08T07:24:34.819Z,4.00
2018-09-08T07:27:02.422Z,4.27
2018-09-08T07:29:29.830Z,3.77
2018-09-08T07:31:57.243Z,4.20
2018-09-08T07:34:24.796Z,4.50
2018-09-08T07:36:52.188Z,3.83
2018-09-08T07:39:19.618Z,4.43
2018-09-08T07:41:47.016Z,3.80
2018-09-08T07:44:14.451Z,3.53
2018-09-08T07:46:41.830Z,4.77
2018-09-08T07:49:09.735Z,3.77
2018-09-08T07:51:37.151Z,4.30
2018-09-08T07:54:04.656Z,3.63
2018-09-08T07:56:32.002Z,3.60
2018-09-08T07:58:59.433Z,4.23
2018-09-08T08:01:26.823Z,6.33
2018-09-08T08:03:54.202Z,4.47
2018-09-08T08:06:21.656Z,3.60
2018-09-08T08:08:49.095Z,3.90
2018-09-08T08:11:16.546Z,3.50
2018-09-08T08:13:43.935Z,3.80
2018-09-08T08:16:11.379Z,3.67
2018-09-08T08:18:38.786Z,3.57
2018-09-08T08:21:06.240Z,3.40
2018-09-08T08:23:33.645Z,3.67
2018-09-08T08:26:01.171Z,3.47
2018-09-08T08:28:28.568Z,4.13
2018-09-08T08:30:56.085Z,2.90
2018-09-08T08:33:23.479Z,3.07
2018-09-08T08:35:50.904Z,3.07
2018-09-08T08:38:18.333Z,3.30
2018-09-08T08:40:45.816Z,3.23
2018-09-08T08:43:13.219Z,3.53
2018-09-08T08:45:40.637Z,2.70
2018-09-08T08:48:08.062Z,2.67
2018-09-08T08:50:47.172Z,2.70
2018-09-08T08:53:29.868Z,2.53
2018-09-08T08:55:57.285Z,2.57
2018-09-08T08:58:24.716Z,2.50
2018-09-08T09:00:52.291Z,2.40
2018-09-08T09:03:19.667Z,2.13
2018-09-08T09:05:47.090Z,2.17
2018-09-08T09:08:16.084Z,2.30
2018-09-08T09:10:44.678Z,2.30
2018-09-08T09:13:13.466Z,2.43
2018-09-08T09:15:40.928Z,2.23
2018-09-08T09:18:08.393Z,2.73
2018-09-08T09:20:47.450Z,2.10
2018-09-08T09:25:29.397Z,2.00
2018-09-08T09:27:56.817Z,2.53
2018-09-08T09:30:24.230Z,2.03
2018-09-08T09:32:51.667Z,2.47
2018-09-08T09:35:20.383Z,2.07
2018-09-08T09:37:47.808Z,2.43
2018-09-08T09:40:16.301Z,2.57
2018-09-08T09:42:43.719Z,2.30
2018-09-08T09:45:11.414Z,2.30
2018-09-08T09:47:38.837Z,2.53
2018-09-08T09:50:07.615Z,2.40
2018-09-08T09:52:35.067Z,2.80
2018-09-08T09:55:02.528Z,2.33
2018-09-08T09:57:29.942Z,2.90
2018-09-08T09:59:57.402Z,2.30
2018-09-08T10:02:31.439Z,2.30
2018-09-08T10:04:58.923Z,2.10
2018-09-08T10:07:26.360Z,2.50
2018-09-08T10:09:54.463Z,2.23
2018-09-08T10:12:21.887Z,2.50
2018-09-08T10:14:49.274Z,2.40
2018-09-08T10:17:16.760Z,2.97
2018-09-08T10:19:44.204Z,2.40
2018-09-08T10:22:11.639Z,2.50
2018-09-08T10:24:39.046Z,2.17
2018-09-08T10:27:06.502Z,2.83
2018-09-08T10:29:34.301Z,2.37
2018-09-08T10:32:01.439Z,2.20
2018-09-08T10:34:28.958Z,3.17
2018-09-08T10:36:56.432Z,2.67
2018-09-08T10:39:23.973Z,2.87
2018-09-08T10:41:51.402Z,2.30
2018-09-08T10:44:18.825Z,2.67
2018-09-08T10:46:46.268Z,2.27
2018-09-08T10:49:13.714Z,2.27
2018-09-08T10:51:47.781Z,2.43
2018-09-08T10:54:15.568Z,2.50
2018-09-08T10:56:42.947Z,2.30
2018-09-08T10:59:10.590Z,2.20
2018-09-08T11:01:38.443Z,2.57
2018-09-08T11:04:06.446Z,2.37
2018-09-08T11:06:33.945Z,2.33
2018-09-08T11:09:01.574Z,2.30
2018-09-08T11:11:28.988Z,2.47
2018-09-08T11:13:57.002Z,2.63
2018-09-08T11:16:24.402Z,2.30
2018-09-08T11:18:52.069Z,2.10
2018-09-08T11:21:19.416Z,2.40
2018-09-08T11:23:46.835Z,2.20
2018-09-08T11:26:14.219Z,2.60
2018-09-08T11:28:41.811Z,2.30
2018-09-08T11:31:11.029Z,2.13
2018-09-08T11:33:38.466Z,2.40
2018-09-08T11:36:06.053Z,2.37
2018-09-08T11:38:33.773Z,2.60
2018-09-08T11:41:01.450Z,1.90
2018-09-08T11:43:28.863Z,2.27
2018-09-08T11:45:56.412Z,2.30
2018-09-08T11:48:23.867Z,2.37
2018-09-08T11:50:51.267Z,2.43
2018-09-08T11:53:18.830Z,1.90
2018-09-08T11:55:46.301Z,2.57
2018-09-08T11:58:13.704Z,2.20
2018-09-08T12:00:41.599Z,2.10
2018-09-08T12:03:09.168Z,2.00
2018-09-08T12:05:36.634Z,1.90
2018-09-08T12:08:04.245Z,1.70
2018-09-08T12:10:31.622Z,1.90
2018-09-08T12:12:59.076Z,2.00
2018-09-08T12:15:26.553Z,1.90
2018-09-08T12:17:57.084Z,2.23
2018-09-08T12:20:24.509Z,2.20
2018-09-08T12:22:52.000Z,2.07
2018-09-08T12:25:19.416Z,1.80
2018-09-08T12:27:46.808Z,1.97
2018-09-08T12:30:14.246Z,1.70
2018-09-08T12:32:41.668Z,1.87
2018-09-08T12:35:09.101Z,1.90
2018-09-08T12:37:36.512Z,1.70
2018-09-08T12:40:03.979Z,2.23
2018-09-08T12:42:31.447Z,1.87
2018-09-08T12:44:58.888Z,1.80
2018-09-08T12:47:26.357Z,1.83
2018-09-08T12:49:53.760Z,1.80
2018-09-08T12:52:21.274Z,1.77
2018-09-08T12:54:49.140Z,1.60
2018-09-08T12:57:16.548Z,1.77
2018-09-08T12:59:43.972Z,1.40
2018-09-08T13:02:11.414Z,1.60
2018-09-08T13:04:38.845Z,1.13
2018-09-08T13:07:06.249Z,1.40
2018-09-08T13:09:33.720Z,1.20
2018-09-08T13:12:01.134Z,1.30
2018-09-08T13:14:28.559Z,1.40
2018-09-08T13:16:55.982Z,1.60
2018-09-08T13:19:23.420Z,1.30
2018-09-08T13:21:50.840Z,1.53
2018-09-08T13:24:18.375Z,1.73
2018-09-08T13:26:45.795Z,1.50
2018-09-08T13:29:13.212Z,1.50
2018-09-08T13:31:40.631Z,1.47
2018-09-08T13:34:08.071Z,1.53
2018-09-08T13:36:35.468Z,1.40
2018-09-08T13:39:03.192Z,1.60
2018-09-08T13:41:30.612Z,2.00
2018-09-08T13:43:58.035Z,1.90
2018-09-08T13:46:25.624Z,1.80
2018-09-08T13:48:53.022Z,1.90
2018-09-08T13:51:20.432Z,1.73
2018-09-08T13:53:47.856Z,1.40
2018-09-08T13:56:15.457Z,1.67
2018-09-08T13:58:42.936Z,1.60
2018-09-08T14:01:10.380Z,1.70
2018-09-08T14:03:37.767Z,1.40
2018-09-08T14:06:05.239Z,1.37
2018-09-08T14:08:33.143Z,1.40
2018-09-08T14:11:00.616Z,1.60
2018-09-08T14:13:28.008Z,1.77
2018-09-08T14:15:55.488Z,1.90
2018-09-08T14:18:22.883Z,1.80
2018-09-08T14:20:50.425Z,1.80
2018-09-08T14:23:18.443Z,1.90
2018-09-08T14:25:45.864Z,1.80
2018-09-08T14:28:13.248Z,1.43
2018-09-08T14:30:40.702Z,1.80
2018-09-08T14:33:08.095Z,1.60
2018-09-08T14:35:35.943Z,1.53
2018-09-08T14:38:03.356Z,1.13
2018-09-08T14:40:30.807Z,1.43
2018-09-08T14:42:58.232Z,1.43
2018-09-08T14:45:26.857Z,1.30
2018-09-08T14:47:54.705Z,1.20
2018-09-08T14:50:22.153Z,1.80
2018-09-08T14:52:49.571Z,1.27
2018-09-08T14:55:17.070Z,1.60
2018-09-08T14:57:44.730Z,1.40
2018-09-08T15:00:13.110Z,1.50
2018-09-08T15:02:40.518Z,1.90
2018-09-08T15:05:07.998Z,1.07
2018-09-08T15:07:35.394Z,1.70
2018-09-08T15:10:03.059Z,1.50
2018-09-08T15:12:30.500Z,1.30
2018-09-08T15:14:58.054Z,1.53
2018-09-08T15:17:25.955Z,1.83
2018-09-08T15:19:53.347Z,1.47
2018-09-08T15:22:20.799Z,1.60
2018-09-08T15:24:48.199Z,1.60
2018-09-08T15:27:15.663Z,1.73
2018-09-08T15:29:43.102Z,1.27
2018-09-08T15:32:10.659Z,1.40
2018-09-08T15:34:38.088Z,1.50
2018-09-08T15:37:05.502Z,1.20
2018-09-08T15:39:32.972Z,1.40
2018-09-08T15:42:00.382Z,1.47
2018-09-08T15:44:27.804Z,1.53
2018-09-08T15:46:55.265Z,1.63
2018-09-08T15:49:22.660Z,1.37
2018-09-08T15:51:50.080Z,1.60
2018-09-08T15:54:17.495Z,1.40
2018-09-08T15:56:44.940Z,1.20
2018-09-08T15:59:12.327Z,1.17
2018-09-08T16:01:39.760Z,1.50
2018-09-08T16:04:07.163Z,1.10
2018-09-08T16:06:34.588Z,1.13
2018-09-08T16:09:02.609Z,1.37
2018-09-08T16:11:30.043Z,1.20
2018-09-08T16:13:57.436Z,1.43
2018-09-08T16:16:24.876Z,1.37
2018-09-08T16:18:52.388Z,1.30
2018-09-08T16:21:19.716Z,1.40
2018-09-08T16:23:47.102Z,1.43
2018-09-08T16:26:14.516Z,1.37
2018-09-08T16:28:41.929Z,1.50
2018-09-08T16:31:09.320Z,1.53
2018-09-08T16:33:36.722Z,1.53
2018-09-08T16:36:04.249Z,1.73
2018-09-08T16:38:31.696Z,1.43
2018-09-08T16:40:59.236Z,1.60
2018-09-08T16:43:26.639Z,1.60
2018-09-08T16:45:54.023Z,1.63
2018-09-08T16:48:21.430Z,1.50
2018-09-08T16:50:48.826Z,1.73
2018-09-08T16:53:16.271Z,1.40
2018-09-08T16:55:43.692Z,1.70
2018-09-08T16:58:12.639Z,2.00
2018-09-08T17:00:40.034Z,1.73
2018-09-08T17:03:07.451Z,1.60
2018-09-08T17:05:34.939Z,1.80
2018-09-08T17:08:02.300Z,1.90
2018-09-08T17:10:29.678Z,1.60
2018-09-08T17:12:57.091Z,1.80
2018-09-08T17:15:24.472Z,1.70
2018-09-08T17:17:52.007Z,1.90
2018-09-08T17:20:19.411Z,1.60
2018-09-08T17:22:46.877Z,1.60
2018-09-08T17:25:14.287Z,1.83
2018-09-08T17:27:41.707Z,1.73
2018-09-08T17:30:09.104Z,2.07
2018-09-08T17:32:36.531Z,2.20
2018-09-08T17:35:04.000Z,2.37
2018-09-08T17:37:31.556Z,2.10
2018-09-08T17:39:58.956Z,2.10
2018-09-08T17:42:26.414Z,1.90
2018-09-08T17:44:53.825Z,1.90
2018-09-08T17:47:21.249Z,1.97
2018-09-08T17:49:51.298Z,2.50
2018-09-08T17:52:18.699Z,2.23
2018-09-08T17:54:46.091Z,1.80
2018-09-08T17:57:13.526Z,2.13
2018-09-08T17:59:40.894Z,2.00
2018-09-08T18:02:08.376Z,2.00
2018-09-08T18:04:35.792Z,2.90
2018-09-08T18:07:03.239Z,2.40
2018-09-08T18:09:30.636Z,2.70
2018-09-08T18:11:58.147Z,1.80
2018-09-08T18:14:25.511Z,2.17
2018-09-08T18:16:52.896Z,2.20
2018-09-08T18:19:20.305Z,2.10
2018-09-08T18:21:47.731Z,2.10
2018-09-08T18:24:15.946Z,1.90
2018-09-08T18:26:43.652Z,2.03
2018-09-08T18:29:11.081Z,2.07
2018-09-08T18:31:38.468Z,1.90
2018-09-08T18:34:05.881Z,2.07
2018-09-08T18:36:33.265Z,2.10
2018-09-08T18:39:01.003Z,2.07
2018-09-08T18:41:28.402Z,1.77
2018-09-08T18:43:55.831Z,2.10
2018-09-08T18:46:23.220Z,1.90
2018-09-08T18:48:50.632Z,1.93
2018-09-08T18:51:18.031Z,2.10
2018-09-08T18:53:45.447Z,2.10
2018-09-08T18:56:12.879Z,2.30
2018-09-08T18:58:40.282Z,4.50
2018-09-08T19:01:07.680Z,2.20
2018-09-08T19:03:35.087Z,2.00
2018-09-08T19:06:02.650Z,1.90
2018-09-08T19:08:35.832Z,2.10
2018-09-08T19:11:03.244Z,2.00
2018-09-08T19:13:30.716Z,2.20
2018-09-08T19:15:58.220Z,2.03
2018-09-08T19:18:25.693Z,1.50
2018-09-08T19:20:53.074Z,2.03
2018-09-08T19:23:20.522Z,1.70
2018-09-08T19:25:47.998Z,2.00
2018-09-08T19:28:15.357Z,1.90
2018-09-08T19:30:42.755Z,1.80
2018-09-08T19:33:10.168Z,1.90
2018-09-08T19:35:39.521Z,1.93
2018-09-08T19:38:07.165Z,1.93
2018-09-08T19:40:40.248Z,2.30
2018-09-08T19:43:07.803Z,2.07
2018-09-08T19:45:35.396Z,2.00
2018-09-08T19:48:03.085Z,1.90
2018-09-08T19:50:30.828Z,2.10
2018-09-08T19:53:04.103Z,2.20
2018-09-08T19:55:31.544Z,2.40
2018-09-08T19:58:04.575Z,2.10
2018-09-08T20:00:32.624Z,2.47
2018-09-08T20:03:00.020Z,2.53
2018-09-08T20:05:27.426Z,2.30
2018-09-08T20:07:54.903Z,3.07
2018-09-08T20:10:22.318Z,2.43
2018-09-08T20:12:49.712Z,2.87
2018-09-08T20:15:17.131Z,2.77
2018-09-08T20:17:44.555Z,2.50
2018-09-08T20:20:12.020Z,2.43
2018-09-08T20:22:39.407Z,2.37
2018-09-08T20:25:06.869Z,2.40
2018-09-08T20:27:34.276Z,2.70
2018-09-08T20:30:01.728Z,2.60
2018-09-08T20:32:29.128Z,2.30
2018-09-08T20:34:56.593Z,2.90
2018-09-08T20:37:24.056Z,2.70
2018-09-08T20:39:51.631Z,2.67
2018-09-08T20:42:19.097Z,2.77
2018-09-08T20:44:46.514Z,2.70
2018-09-08T20:47:13.939Z,2.67
2018-09-08T20:49:41.644Z,3.07
2018-09-08T20:52:09.407Z,2.30
2018-09-08T20:54:36.865Z,2.70
2018-09-08T20:57:04.318Z,2.70
2018-09-08T20:59:31.743Z,2.90
2018-09-08T21:01:59.233Z,2.60
2018-09-08T21:04:26.644Z,2.83
2018-09-08T21:06:54.043Z,3.10
2018-09-08T21:09:21.681Z,3.10
2018-09-08T21:11:49.110Z,2.40
2018-09-08T21:14:16.514Z,2.50
2018-09-08T21:16:43.943Z,3.00
2018-09-08T21:19:11.339Z,3.40
2018-09-08T21:21:38.757Z,3.33
2018-09-08T21:24:06.173Z,3.40
2018-09-08T21:26:33.614Z,3.40
2018-09-08T21:29:01.463Z,3.50
2018-09-08T21:31:28.890Z,3.47
2018-09-08T21:33:56.298Z,2.87
2018-09-08T21:36:23.716Z,3.10
2018-09-08T21:38:51.124Z,3.33
2018-09-08T21:41:18.615Z,3.10
2018-09-08T21:43:46.202Z,3.30
2018-09-08T21:46:13.608Z,3.33
2018-09-08T21:48:41.039Z,3.20
2018-09-08T21:51:08.447Z,3.30
2018-09-08T21:53:35.825Z,3.30
2018-09-08T21:56:03.280Z,2.90
2018-09-08T21:58:30.738Z,3.23
2018-09-08T22:01:30.576Z,3.60
2018-09-08T22:03:58.027Z,3.23
2018-09-08T22:41:01.533Z,3.30
2018-09-08T22:43:28.954Z,3.33
2018-09-08T22:45:56.593Z,3.57
2018-09-08T22:48:24.044Z,4.23
2018-09-08T22:50:51.597Z,3.70
2018-09-08T22:53:19.038Z,4.00
2018-09-08T22:55:46.464Z,4.20
2018-09-08T22:58:13.933Z,3.70
2018-09-08T23:00:41.390Z,3.57
2018-09-08T23:03:08.926Z,3.60
2018-09-08T23:05:36.363Z,3.93
2018-09-08T23:08:03.878Z,3.50
2018-09-08T23:10:31.421Z,3.20
2018-09-08T23:12:58.871Z,3.40
2018-09-08T23:15:26.649Z,3.43
2018-09-08T23:17:54.089Z,3.30
2018-09-08T23:20:21.502Z,3.73
2018-09-08T23:22:49.011Z,3.53
2018-09-08T23:25:16.429Z,3.60
2018-09-08T23:27:43.869Z,3.40
2018-09-08T23:30:11.330Z,3.60
2018-09-08T23:32:38.766Z,3.50
2018-09-08T23:35:06.499Z,3.27
2018-09-08T23:37:33.929Z,3.60
2018-09-08T23:40:01.481Z,4.00
2018-09-08T23:42:28.964Z,3.70
2018-09-08T23:44:56.404Z,4.17
2018-09-08T23:47:23.921Z,3.30
2018-09-08T23:49:51.332Z,3.60
2018-09-08T23:52:18.781Z,3.43
2018-09-08T23:54:46.188Z,3.37
2018-09-08T23:57:13.637Z,3.80
2018-09-08T23:59:41.045Z,3.70
